createdAt,value
2022-12-29T00:00:10.721Z,11.63
2022-12-29T00:02:37.790Z,11.90
2022-12-29T00:05:04.995Z,12.93
2022-12-29T00:07:31.803Z,12.52
2022-12-29T00:09:58.704Z,12.38
2022-12-29T00:12:25.520Z,11.52
2022-12-29T00:15:10.736Z,12.00
2022-12-29T00:17:37.570Z,11.18
2022-12-29T00:20:23.248Z,11.27
2022-12-29T00:23:08.446Z,10.45
2022-12-29T00:26:06.843Z,9.80
2022-12-29T00:28:52.651Z,10.88
2022-12-29T00:31:38.045Z,10.63
2022-12-29T00:34:23.222Z,11.18
2022-12-29T00:36:50.023Z,10.57
2022-12-29T00:39:38.246Z,11.50
2022-12-29T00:42:24.930Z,10.38
2022-12-29T00:44:51.873Z,9.38
2022-12-29T00:47:18.789Z,10.38
2022-12-29T00:49:45.604Z,10.10
2022-12-29T00:52:14.369Z,11.05
2022-12-29T00:54:42.134Z,12.48
2022-12-29T00:57:10.690Z,13.90
2022-12-29T00:59:39.224Z,13.88
2022-12-29T01:02:06.893Z,12.93
2022-12-29T01:04:34.586Z,13.98
2022-12-29T01:07:01.688Z,14.57
2022-12-29T01:09:46.870Z,14.02
2022-12-29T01:12:14.271Z,12.93
2022-12-29T01:14:41.325Z,12.10
2022-12-29T01:17:08.172Z,11.98
2022-12-29T01:19:35.161Z,13.00
2022-12-29T01:22:02.470Z,13.75
2022-12-29T01:24:29.361Z,13.93
2022-12-29T01:26:56.310Z,12.82
2022-12-29T01:29:23.621Z,15.80
2022-12-29T01:31:51.104Z,17.00
2022-12-29T01:34:18.819Z,16.05
2022-12-29T01:36:46.052Z,15.25
2022-12-29T01:39:13.068Z,14.65
2022-12-29T01:41:41.310Z,15.73
2022-12-29T01:44:42.395Z,15.77
2022-12-29T01:47:09.629Z,15.07
2022-12-29T01:49:36.741Z,14.88
2022-12-29T01:52:08.987Z,14.48
2022-12-29T01:59:44.484Z,14.10
2022-12-29T02:02:11.793Z,14.82
2022-12-29T02:04:45.158Z,14.25
2022-12-29T02:07:20.485Z,14.23
2022-12-29T02:09:49.959Z,13.48
2022-12-29T02:12:19.165Z,14.02
2022-12-29T02:14:46.674Z,13.77
2022-12-29T02:17:13.563Z,14.68
2022-12-29T02:19:56.037Z,13.88
2022-12-29T02:23:00.401Z,14.05
2022-12-29T02:25:51.327Z,13.52
2022-12-29T02:28:25.455Z,13.35
2022-12-29T02:31:27.997Z,13.90
2022-12-29T02:34:11.672Z,12.80
2022-12-29T02:36:47.947Z,12.52
2022-12-29T02:39:33.590Z,12.90
2022-12-29T02:42:09.342Z,12.13
2022-12-29T02:44:52.167Z,12.55
2022-12-29T02:47:37.529Z,13.02
2022-12-29T02:50:10.258Z,12.48
2022-12-29T02:52:49.186Z,11.88
2022-12-29T02:55:16.144Z,12.73
2022-12-29T02:57:43.060Z,12.93
2022-12-29T03:00:14.574Z,12.52
2022-12-29T03:03:40.527Z,12.60
2022-12-29T03:06:26.499Z,13.15
2022-12-29T03:08:58.898Z,13.00
2022-12-29T03:11:53.020Z,12.98
2022-12-29T03:14:49.242Z,12.23
2022-12-29T03:17:30.958Z,12.07
2022-12-29T03:20:07.412Z,12.60
2022-12-29T03:22:40.515Z,12.23
2022-12-29T03:25:29.483Z,13.70
2022-12-29T03:28:11.657Z,12.68
2022-12-29T03:30:40.963Z,13.07
2022-12-29T03:33:13.286Z,11.35
2022-12-29T03:35:45.062Z,11.90
2022-12-29T03:38:31.366Z,12.48
2022-12-29T03:41:01.538Z,12.88
2022-12-29T03:43:29.241Z,13.05
2022-12-29T03:45:56.150Z,12.75
2022-12-29T03:48:23.043Z,13.35
2022-12-29T03:50:50.075Z,12.38
2022-12-29T03:53:17.308Z,12.63
2022-12-29T03:55:44.235Z,12.88
2022-12-29T03:58:11.126Z,11.48
2022-12-29T04:00:37.984Z,12.25
2022-12-29T04:03:05.074Z,12.52
2022-12-29T04:05:32.271Z,12.48
2022-12-29T04:07:59.841Z,12.65
2022-12-29T04:10:26.826Z,13.93
2022-12-29T04:12:53.751Z,13.80
2022-12-29T04:15:20.721Z,14.23
2022-12-29T04:17:47.485Z,13.07
2022-12-29T04:20:32.678Z,13.55
2022-12-29T04:23:01.809Z,13.50
2022-12-29T04:25:28.966Z,13.07
2022-12-29T04:27:55.795Z,14.52
2022-12-29T04:30:22.764Z,13.90
2022-12-29T04:32:49.546Z,14.52
2022-12-29T04:35:16.808Z,15.93
2022-12-29T04:37:45.175Z,13.75
2022-12-29T04:40:12.735Z,14.23
2022-12-29T04:42:39.630Z,14.80
2022-12-29T04:45:07.169Z,14.35
2022-12-29T04:47:34.310Z,15.20
2022-12-29T04:50:01.428Z,14.98
2022-12-29T04:52:28.219Z,15.02
2022-12-29T04:54:55.056Z,15.20
2022-12-29T04:57:21.884Z,14.57
2022-12-29T04:59:48.697Z,15.65
2022-12-29T05:02:16.062Z,15.05
2022-12-29T05:04:45.777Z,15.13
2022-12-29T05:07:12.763Z,15.68
2022-12-29T05:09:39.732Z,14.95
2022-12-29T05:12:07.574Z,15.18
2022-12-29T05:14:34.712Z,15.65
2022-12-29T05:17:01.479Z,15.20
2022-12-29T05:19:28.315Z,15.65
2022-12-29T05:21:55.657Z,15.70
2022-12-29T05:24:22.956Z,13.93
2022-12-29T05:26:49.753Z,15.90
2022-12-29T05:29:16.589Z,16.48
2022-12-29T05:31:45.183Z,15.85
2022-12-29T05:34:12.523Z,16.48
2022-12-29T05:36:39.536Z,17.83
2022-12-29T05:39:08.734Z,15.50
2022-12-29T05:41:36.207Z,17.27
2022-12-29T05:44:03.287Z,16.60
2022-12-29T05:46:30.312Z,17.45
2022-12-29T05:48:57.269Z,17.08
2022-12-29T05:51:24.632Z,17.58
2022-12-29T05:53:51.562Z,18.48
2022-12-29T05:56:18.572Z,16.52
2022-12-29T05:58:45.363Z,16.63
2022-12-29T06:01:12.191Z,16.90
2022-12-29T06:03:42.966Z,16.13
2022-12-29T06:06:13.021Z,16.40
2022-12-29T06:08:39.867Z,16.98
2022-12-29T06:11:07.225Z,17.13
2022-12-29T06:13:34.138Z,17.25
2022-12-29T06:16:01.081Z,18.30
2022-12-29T06:18:28.051Z,16.88
2022-12-29T06:20:55.165Z,16.50
2022-12-29T06:23:22.043Z,16.38
2022-12-29T06:25:49.817Z,16.60
2022-12-29T06:28:17.540Z,16.27
2022-12-29T06:30:49.086Z,16.48
2022-12-29T06:33:16.632Z,16.08
2022-12-29T06:35:47.057Z,16.08
2022-12-29T06:38:14.334Z,17.33
2022-12-29T06:40:42.599Z,18.08
2022-12-29T06:43:09.483Z,18.48
2022-12-29T06:45:38.402Z,17.85
2022-12-29T06:48:05.355Z,17.60
2022-12-29T06:50:32.291Z,19.13
2022-12-29T06:52:59.129Z,18.60
2022-12-29T06:55:25.924Z,18.65
2022-12-29T06:57:58.584Z,17.05
2022-12-29T07:00:26.285Z,18.27
2022-12-29T07:02:53.359Z,19.80
2022-12-29T07:05:20.316Z,21.60
2022-12-29T07:07:47.438Z,30.00
2022-12-29T07:10:14.384Z,23.30
2022-12-29T07:12:41.319Z,22.10
2022-12-29T07:15:08.798Z,21.80
2022-12-29T07:17:35.698Z,22.05
2022-12-29T07:20:02.707Z,23.90
2022-12-29T07:22:29.558Z,22.75
2022-12-29T07:24:56.650Z,24.83
2022-12-29T07:27:23.652Z,23.25
2022-12-29T07:29:50.572Z,24.20
2022-12-29T07:32:17.983Z,81.55
2022-12-29T07:34:46.355Z,121.80
2022-12-29T07:37:13.362Z,65.65
2022-12-29T07:39:40.150Z,60.33
2022-12-29T07:42:07.265Z,36.30
2022-12-29T07:44:34.113Z,22.25
2022-12-29T07:47:01.111Z,22.65
2022-12-29T07:49:29.181Z,22.95
2022-12-29T07:51:56.049Z,23.60
2022-12-29T07:54:23.626Z,25.67
2022-12-29T07:56:51.673Z,26.08
2022-12-29T07:59:18.922Z,26.13
2022-12-29T08:01:46.254Z,32.35
2022-12-29T08:04:13.338Z,27.95
2022-12-29T08:06:40.770Z,29.42
2022-12-29T08:09:15.136Z,25.55
2022-12-29T08:11:44.264Z,22.42
2022-12-29T08:14:11.333Z,20.50
2022-12-29T08:16:38.212Z,23.02
2022-12-29T08:19:07.252Z,22.05
2022-12-29T08:21:37.640Z,22.13
2022-12-29T08:24:09.376Z,28.90
2022-12-29T08:26:39.597Z,26.38
2022-12-29T08:29:19.573Z,22.98
2022-12-29T08:31:53.770Z,21.98
2022-12-29T08:34:20.958Z,20.15
2022-12-29T08:36:51.061Z,21.75
2022-12-29T08:39:24.523Z,21.95
2022-12-29T08:41:54.464Z,24.27
2022-12-29T08:44:28.791Z,24.27
2022-12-29T08:49:41.832Z,24.65
2022-12-29T08:52:09.775Z,25.90
2022-12-29T08:54:36.893Z,24.80
2022-12-29T08:57:07.091Z,23.58
2022-12-29T08:59:34.018Z,21.60
2022-12-29T09:02:03.018Z,18.58
2022-12-29T09:04:30.135Z,17.75
2022-12-29T09:07:00.147Z,19.17
2022-12-29T09:09:27.612Z,18.33
2022-12-29T09:11:54.439Z,20.23
2022-12-29T09:14:24.759Z,21.23
2022-12-29T09:17:14.125Z,24.33
2022-12-29T09:19:49.611Z,23.20
2022-12-29T09:22:16.500Z,21.70
2022-12-29T09:24:43.474Z,20.35
2022-12-29T09:27:10.737Z,19.42
2022-12-29T09:29:37.972Z,22.23
2022-12-29T09:32:08.219Z,22.92
2022-12-29T09:34:35.521Z,22.23
2022-12-29T09:37:02.356Z,22.92
2022-12-29T09:39:29.273Z,23.67
2022-12-29T09:42:16.662Z,23.60
2022-12-29T09:45:05.294Z,25.42
2022-12-29T09:47:32.444Z,23.10
2022-12-29T09:50:26.734Z,20.63
2022-12-29T09:55:54.509Z,24.27
2022-12-29T09:58:47.932Z,25.65
2022-12-29T10:01:40.647Z,26.75
2022-12-29T10:04:11.041Z,24.65
2022-12-29T10:07:34.074Z,25.88
2022-12-29T10:15:59.547Z,24.58
2022-12-29T10:18:44.585Z,24.58
2022-12-29T10:21:40.623Z,23.80
2022-12-29T10:24:12.801Z,23.15
2022-12-29T10:29:23.054Z,20.10
2022-12-29T10:32:04.361Z,20.13
2022-12-29T10:34:40.581Z,20.77
2022-12-29T10:37:40.542Z,21.85
2022-12-29T10:40:38.729Z,27.92
2022-12-29T10:43:33.275Z,56.55
2022-12-29T10:46:05.615Z,25.17
2022-12-29T10:48:42.783Z,24.88
2022-12-29T10:51:10.417Z,23.20
2022-12-29T10:53:47.607Z,22.23
2022-12-29T10:56:36.318Z,23.15
2022-12-29T10:59:21.419Z,24.48
2022-12-29T11:02:11.773Z,23.15
2022-12-29T11:04:55.159Z,23.77
2022-12-29T11:07:27.433Z,23.50
2022-12-29T11:09:55.301Z,25.67
2022-12-29T11:12:26.558Z,26.92
2022-12-29T11:15:09.031Z,23.35
2022-12-29T11:20:41.784Z,22.10
2022-12-29T11:23:29.530Z,22.65
2022-12-29T11:26:11.985Z,21.13
2022-12-29T11:28:42.707Z,20.90
2022-12-29T11:31:10.668Z,20.75
2022-12-29T11:33:40.517Z,21.10
2022-12-29T11:36:20.266Z,21.25
2022-12-29T11:38:55.943Z,22.30
2022-12-29T11:41:29.547Z,21.55
2022-12-29T11:44:06.668Z,21.70
2022-12-29T11:46:40.056Z,20.67
2022-12-29T11:49:07.697Z,21.67
2022-12-29T11:51:51.989Z,21.38
2022-12-29T11:54:28.728Z,21.50
2022-12-29T11:56:59.639Z,21.08
2022-12-29T11:59:32.517Z,21.60
2022-12-29T12:02:10.600Z,22.98
2022-12-29T12:04:44.002Z,23.35
2022-12-29T12:07:21.324Z,23.55
2022-12-29T12:12:53.737Z,23.35
2022-12-29T12:15:37.003Z,26.65
2022-12-29T12:18:12.724Z,24.63
2022-12-29T12:20:56.226Z,23.52
2022-12-29T12:23:39.705Z,26.38
2022-12-29T12:26:13.802Z,25.40
2022-12-29T12:28:50.280Z,25.67
2022-12-29T12:31:24.253Z,25.17
2022-12-29T12:34:05.624Z,27.08
2022-12-29T12:36:53.752Z,27.30
2022-12-29T12:43:17.265Z,27.42
2022-12-29T12:49:18.138Z,28.23
2022-12-29T12:52:14.155Z,28.27
2022-12-29T12:55:20.536Z,28.90
2022-12-29T12:58:12.721Z,30.55
2022-12-29T13:00:47.124Z,30.63
2022-12-29T13:03:48.658Z,29.20
2022-12-29T13:06:49.774Z,30.30
2022-12-29T13:09:30.095Z,29.40
2022-12-29T13:12:23.194Z,29.40
2022-12-29T13:14:59.306Z,33.28
2022-12-29T13:17:39.216Z,28.23
2022-12-29T13:20:12.677Z,28.92
2022-12-29T13:23:03.620Z,29.35
2022-12-29T13:25:46.241Z,31.20
2022-12-29T13:28:19.908Z,30.73
2022-12-29T13:31:03.102Z,59.28
2022-12-29T13:33:59.662Z,32.90
2022-12-29T13:36:46.915Z,34.05
2022-12-29T13:39:25.821Z,34.25
2022-12-29T13:42:42.399Z,33.75
2022-12-29T13:45:18.175Z,34.97
2022-12-29T13:48:01.326Z,35.90
2022-12-29T13:50:40.296Z,37.63
2022-12-29T13:53:24.726Z,38.35
2022-12-29T13:56:03.929Z,36.58
2022-12-29T13:59:16.977Z,38.10
2022-12-29T14:01:55.008Z,36.80
2022-12-29T14:04:28.234Z,36.88
2022-12-29T14:07:03.843Z,36.17
2022-12-29T14:09:39.313Z,37.55
2022-12-29T14:12:39.200Z,39.97
2022-12-29T14:15:12.327Z,39.22
2022-12-29T14:17:41.854Z,39.53
2022-12-29T14:20:37.990Z,40.85
2022-12-29T14:23:11.425Z,38.97
2022-12-29T14:25:58.397Z,38.95
2022-12-29T14:31:23.328Z,39.67
2022-12-29T14:34:34.483Z,43.83
2022-12-29T14:37:12.363Z,44.22
2022-12-29T14:39:41.384Z,42.67
2022-12-29T14:42:11.584Z,42.92
2022-12-29T14:47:48.642Z,43.03
2022-12-29T14:50:21.934Z,42.65
2022-12-29T14:53:04.217Z,42.28
2022-12-29T14:55:43.774Z,41.55
2022-12-29T14:58:40.889Z,45.55
2022-12-29T15:01:34.243Z,47.08
2022-12-29T15:04:15.659Z,46.85
2022-12-29T15:06:46.004Z,45.72
2022-12-29T15:09:38.479Z,42.53
2022-12-29T15:12:20.793Z,43.58
2022-12-29T15:14:59.510Z,42.80
2022-12-29T15:17:33.897Z,42.00
2022-12-29T15:23:19.757Z,43.20
2022-12-29T15:25:54.140Z,45.10
2022-12-29T15:28:22.616Z,44.10
2022-12-29T15:31:04.976Z,44.47
2022-12-29T15:33:38.137Z,44.08
2022-12-29T15:36:12.632Z,44.30
2022-12-29T15:38:46.791Z,42.80
2022-12-29T15:42:03.366Z,44.92
2022-12-29T15:45:13.253Z,44.63
2022-12-29T15:47:42.708Z,44.13
2022-12-29T15:50:35.350Z,47.58
2022-12-29T15:56:07.981Z,41.50
2022-12-29T15:58:44.240Z,43.90
2022-12-29T16:01:28.420Z,46.00
2022-12-29T16:03:56.753Z,44.63
2022-12-29T16:06:29.746Z,46.35
2022-12-29T16:08:59.566Z,47.50
2022-12-29T16:11:41.881Z,47.20
2022-12-29T16:14:47.252Z,47.42
2022-12-29T16:17:20.355Z,46.45
2022-12-29T16:23:26.684Z,45.72
2022-12-29T16:25:56.317Z,44.42
2022-12-29T16:28:26.398Z,45.65
2022-12-29T16:31:05.307Z,47.50
2022-12-29T16:33:54.222Z,59.28
2022-12-29T16:36:40.592Z,76.50
2022-12-29T16:39:28.640Z,54.13
2022-12-29T16:50:28.945Z,48.60
2022-12-29T16:52:56.549Z,54.03
2022-12-29T16:55:24.241Z,52.65
2022-12-29T16:57:54.815Z,52.13
2022-12-29T17:00:33.676Z,51.53
2022-12-29T17:03:02.012Z,50.72
2022-12-29T17:05:57.342Z,53.90
2022-12-29T17:08:25.325Z,49.28
2022-12-29T17:11:39.235Z,51.75
2022-12-29T17:14:18.223Z,51.97
2022-12-29T17:19:52.143Z,57.38
2022-12-29T17:22:30.448Z,51.92
2022-12-29T17:24:59.765Z,52.03
2022-12-29T17:27:47.136Z,52.80
2022-12-29T17:30:21.336Z,52.40
2022-12-29T17:35:55.411Z,65.28
2022-12-29T17:38:31.863Z,74.85
2022-12-29T17:40:59.905Z,80.80
2022-12-29T17:43:34.605Z,63.67
2022-12-29T17:46:27.751Z,68.65
2022-12-29T17:48:55.408Z,67.10
2022-12-29T17:51:25.180Z,70.50
2022-12-29T17:53:52.328Z,73.88
2022-12-29T17:56:20.828Z,61.45
2022-12-29T17:58:50.377Z,59.88
2022-12-29T18:01:23.832Z,63.30
2022-12-29T18:03:51.166Z,70.25
2022-12-29T18:06:18.173Z,67.97
2022-12-29T18:08:46.194Z,62.50
2022-12-29T18:11:26.303Z,64.95
2022-12-29T18:13:54.277Z,67.18
2022-12-29T18:16:24.969Z,67.57
2022-12-29T18:18:55.223Z,67.43
2022-12-29T18:21:24.375Z,69.63
2022-12-29T18:23:51.491Z,66.80
2022-12-29T18:26:25.650Z,64.70
2022-12-29T18:28:55.218Z,60.53
2022-12-29T18:31:24.435Z,62.30
2022-12-29T18:33:53.238Z,61.40
2022-12-29T18:36:20.844Z,59.33
2022-12-29T18:38:47.870Z,60.50
2022-12-29T18:41:17.820Z,59.50
2022-12-29T18:43:45.444Z,60.85
2022-12-29T18:46:23.123Z,57.28
2022-12-29T18:48:51.706Z,59.92
2022-12-29T18:51:21.932Z,63.90
2022-12-29T18:53:49.352Z,66.50
2022-12-29T18:56:17.450Z,71.88
2022-12-29T18:58:44.218Z,77.13
2022-12-29T19:01:26.085Z,80.50
2022-12-29T19:03:53.681Z,79.20
2022-12-29T19:06:21.456Z,76.28
2022-12-29T19:08:53.558Z,74.47
2022-12-29T19:11:20.543Z,74.85
2022-12-29T19:13:47.882Z,71.53
2022-12-29T19:16:20.741Z,72.03
2022-12-29T19:19:00.957Z,67.28
2022-12-29T19:21:34.544Z,66.75
2022-12-29T19:24:02.337Z,73.55
2022-12-29T19:26:34.642Z,69.85
2022-12-29T19:29:02.020Z,72.18
2022-12-29T19:31:51.789Z,71.47
2022-12-29T19:37:03.802Z,72.28
2022-12-29T19:39:48.434Z,73.07
2022-12-29T19:42:24.690Z,73.00
2022-12-29T19:44:51.601Z,70.82
2022-12-29T19:47:21.146Z,73.00
2022-12-29T19:52:33.651Z,69.35
2022-12-29T19:55:01.543Z,67.20
2022-12-29T19:57:30.932Z,65.30
2022-12-29T19:59:58.673Z,64.40
2022-12-29T20:02:31.770Z,67.18
2022-12-29T20:04:59.511Z,63.38
2022-12-29T20:07:51.618Z,68.05
2022-12-29T20:10:18.642Z,63.10
2022-12-29T20:12:46.800Z,62.47
2022-12-29T20:15:25.699Z,60.85
2022-12-29T20:20:40.976Z,54.63
2022-12-29T20:23:07.937Z,55.20
2022-12-29T20:25:50.886Z,55.13
2022-12-29T20:28:18.943Z,56.30
2022-12-29T20:30:53.987Z,53.50
2022-12-29T20:36:09.300Z,50.65
2022-12-29T20:38:37.918Z,54.13
2022-12-29T20:41:16.131Z,54.38
2022-12-29T20:46:33.977Z,52.90
2022-12-29T20:49:03.631Z,52.70
2022-12-29T20:51:59.288Z,55.40
2022-12-29T20:54:19.827Z,54.97
2022-12-29T20:56:47.073Z,54.42
2022-12-29T20:59:29.737Z,55.05
2022-12-29T21:01:57.670Z,52.83
2022-12-29T21:04:43.811Z,52.67
2022-12-29T21:07:19.916Z,52.28
2022-12-29T21:09:52.395Z,53.13
2022-12-29T21:15:03.537Z,51.65
2022-12-29T21:17:30.424Z,54.03
2022-12-29T21:19:57.996Z,54.78
2022-12-29T21:22:29.639Z,55.50
2022-12-29T21:25:00.495Z,58.15
2022-12-29T21:27:47.536Z,56.60
2022-12-29T21:30:15.149Z,56.72
2022-12-29T21:32:42.152Z,57.80
2022-12-29T21:35:10.299Z,59.13
2022-12-29T21:37:57.056Z,60.13
2022-12-29T21:40:23.942Z,58.30
2022-12-29T21:42:58.339Z,59.90
2022-12-29T21:45:35.369Z,60.85
2022-12-29T21:48:21.863Z,61.40
2022-12-29T21:51:10.062Z,55.75
2022-12-29T21:56:28.295Z,58.35
2022-12-29T21:59:14.251Z,57.47
2022-12-29T22:01:59.700Z,59.22
2022-12-29T22:04:46.207Z,55.58
2022-12-29T22:10:33.263Z,62.22
2022-12-29T22:13:08.035Z,59.95
2022-12-29T22:15:37.230Z,58.72
2022-12-29T22:20:48.222Z,53.72
2022-12-29T22:23:38.517Z,55.22
2022-12-29T22:26:09.402Z,53.28
2022-12-29T22:28:41.220Z,49.38
2022-12-29T22:31:27.912Z,45.95
2022-12-29T22:34:01.185Z,45.75
2022-12-29T22:36:35.349Z,46.85
2022-12-29T22:39:03.120Z,46.42
2022-12-29T22:41:30.162Z,45.00
2022-12-29T22:43:57.919Z,46.83
2022-12-29T22:46:25.014Z,46.45
2022-12-29T22:49:01.090Z,48.05
2022-12-29T22:51:30.519Z,46.15
2022-12-29T22:53:58.512Z,44.75
2022-12-29T22:56:25.377Z,44.85
2022-12-29T22:58:54.591Z,45.75
2022-12-29T23:01:23.696Z,44.30
2022-12-29T23:03:50.714Z,44.35
2022-12-29T23:06:17.988Z,46.10
2022-12-29T23:08:45.467Z,45.03
2022-12-29T23:11:20.569Z,44.90
2022-12-29T23:13:47.555Z,44.83
2022-12-29T23:16:15.713Z,44.20
2022-12-29T23:18:46.057Z,44.95
2022-12-29T23:21:15.124Z,42.58
2022-12-29T23:24:04.110Z,42.65
2022-12-29T23:26:40.568Z,44.70
2022-12-29T23:29:10.887Z,40.95
2022-12-29T23:31:38.663Z,42.47
2022-12-29T23:34:07.728Z,42.72
2022-12-29T23:36:34.682Z,40.92
2022-12-29T23:39:02.010Z,41.65
2022-12-29T23:41:28.903Z,40.65
2022-12-29T23:43:56.201Z,41.03
2022-12-29T23:46:25.425Z,41.50
2022-12-29T23:48:52.684Z,41.38
2022-12-29T23:51:19.861Z,43.45
2022-12-29T23:53:47.256Z,41.65
2022-12-29T23:56:23.677Z,41.83
2022-12-29T23:58:51.668Z,40.28
